createdAt,value
2018-09-20T00:01:54.311Z,5.70
2018-09-20T00:02:53.805Z,6.20
2018-09-20T00:04:51.697Z,5.70
2018-09-20T00:07:48.628Z,5.60
2018-09-20T00:10:41.665Z,5.90
2018-09-20T00:11:41.664Z,5.10
2018-09-20T00:13:38.108Z,5.50
2018-09-20T00:14:37.585Z,5.70
2018-09-20T00:16:35.529Z,5.50
2018-09-20T00:17:35.560Z,5.50
2018-09-20T00:19:31.525Z,5.20
2018-09-20T00:20:31.487Z,5.50
2018-09-20T00:22:27.441Z,5.10
2018-09-20T00:23:27.416Z,5.50
2018-09-20T00:25:24.378Z,5.60
2018-09-20T00:26:23.387Z,5.50
2018-09-20T00:28:19.846Z,5.30
2018-09-20T00:29:19.347Z,5.80
2018-09-20T00:31:16.277Z,5.50
2018-09-20T00:32:15.297Z,6.10
2018-09-20T00:34:11.771Z,6.20
2018-09-20T00:35:11.259Z,6.40
2018-09-20T00:37:08.204Z,5.60
2018-09-20T00:38:07.253Z,5.70
2018-09-20T00:40:03.132Z,6.20
2018-09-20T00:41:03.105Z,6.70
2018-09-20T00:42:59.069Z,5.30
2018-09-20T00:44:00.058Z,5.80
2018-09-20T00:45:55.059Z,7.00
2018-09-20T00:46:55.057Z,6.40
2018-09-20T00:48:50.981Z,6.60
2018-09-20T00:49:50.977Z,5.70
2018-09-20T00:51:47.430Z,6.10
2018-09-20T00:52:46.925Z,5.90
2018-09-20T00:54:42.872Z,5.70
2018-09-20T00:55:42.858Z,6.20
2018-09-20T00:57:40.347Z,5.60
2018-09-20T00:58:39.816Z,6.00
2018-09-20T01:00:35.802Z,6.00
2018-09-20T01:01:35.776Z,6.00
2018-09-20T01:03:32.233Z,5.70
2018-09-20T01:04:31.731Z,5.50
2018-09-20T01:06:27.678Z,5.60
2018-09-20T01:07:27.688Z,6.00
2018-09-20T01:09:24.638Z,5.40
2018-09-20T01:10:23.606Z,5.50
2018-09-20T01:12:20.059Z,5.50
2018-09-20T01:13:20.064Z,5.70
2018-09-20T01:15:15.523Z,5.40
2018-09-20T01:16:15.506Z,6.10
2018-09-20T01:18:11.474Z,5.70
2018-09-20T01:19:11.984Z,6.10
2018-09-20T01:21:07.421Z,5.80
2018-09-20T01:22:07.420Z,5.80
2018-09-20T01:24:03.350Z,5.90
2018-09-20T01:25:03.368Z,6.30
2018-09-20T01:26:59.323Z,6.10
2018-09-20T01:27:59.319Z,6.00
2018-09-20T01:29:57.248Z,6.20
2018-09-20T01:30:57.253Z,5.90
2018-09-20T01:32:54.207Z,5.80
2018-09-20T01:33:53.178Z,5.50
2018-09-20T01:35:50.640Z,5.70
2018-09-20T01:36:49.125Z,6.00
2018-09-20T01:38:46.586Z,5.70
2018-09-20T01:39:45.069Z,6.60
2018-09-20T01:41:41.037Z,6.40
2018-09-20T01:42:41.041Z,5.80
2018-09-20T01:44:37.001Z,6.30
2018-09-20T01:45:37.000Z,5.90
2018-09-20T01:47:33.888Z,6.10
2018-09-20T01:48:32.946Z,5.90
2018-09-20T01:50:29.408Z,6.90
2018-09-20T01:51:28.890Z,6.50
2018-09-20T01:53:25.343Z,5.70
2018-09-20T01:54:25.339Z,5.70
2018-09-20T01:56:22.797Z,6.20
2018-09-20T01:57:20.811Z,5.80
2018-09-20T01:59:17.774Z,5.70
2018-09-20T02:00:17.271Z,5.90
2018-09-20T02:02:12.690Z,6.10
2018-09-20T02:03:12.691Z,6.30
2018-09-20T02:05:08.655Z,7.30
2018-09-20T02:06:08.627Z,6.20
2018-09-20T02:08:05.603Z,6.60
2018-09-20T02:09:04.611Z,6.00
2018-09-20T02:11:00.531Z,5.80
2018-09-20T02:12:00.554Z,5.70
2018-09-20T02:13:56.492Z,6.40
2018-09-20T02:14:56.484Z,5.40
2018-09-20T02:16:53.445Z,6.30
2018-09-20T02:17:52.936Z,6.50
2018-09-20T02:19:49.391Z,6.50
2018-09-20T02:20:49.881Z,6.70
2018-09-20T02:22:45.335Z,6.10
2018-09-20T02:23:45.796Z,6.60
2018-09-20T02:25:41.255Z,5.90
2018-09-20T02:26:42.247Z,7.40
2018-09-20T02:28:37.213Z,6.30
2018-09-20T02:29:37.201Z,6.60
2018-09-20T02:31:33.677Z,6.80
2018-09-20T02:32:33.130Z,6.40
2018-09-20T02:34:30.093Z,6.70
2018-09-20T02:35:29.620Z,7.10
2018-09-20T02:37:26.553Z,6.40
2018-09-20T02:38:25.031Z,6.60
2018-09-20T02:40:20.993Z,6.30
2018-09-20T02:41:22.051Z,6.20
2018-09-20T02:43:17.484Z,6.30
2018-09-20T02:44:16.963Z,6.80
2018-09-20T02:46:12.872Z,7.20
2018-09-20T02:47:13.423Z,7.10
2018-09-20T02:49:09.855Z,6.60
2018-09-20T02:50:08.859Z,6.20
2018-09-20T02:52:04.782Z,7.10
2018-09-20T02:53:04.815Z,6.40
2018-09-20T02:55:01.257Z,7.00
2018-09-20T02:56:00.740Z,6.10
2018-09-20T02:57:58.219Z,6.50
2018-09-20T02:58:56.760Z,6.30
2018-09-20T03:00:55.091Z,6.50
2018-09-20T03:01:52.647Z,6.90
2018-09-20T03:03:48.609Z,6.50
2018-09-20T03:04:48.583Z,6.30
2018-09-20T03:06:45.553Z,6.20
2018-09-20T03:07:45.056Z,7.30
2018-09-20T03:09:41.481Z,6.40
2018-09-20T03:10:40.484Z,6.60
2018-09-20T03:12:36.446Z,7.10
2018-09-20T03:13:36.425Z,7.10
2018-09-20T03:15:32.411Z,6.60
2018-09-20T03:16:32.388Z,6.90
2018-09-20T03:18:32.339Z,6.40
2018-09-20T03:19:30.481Z,6.70
2018-09-20T03:21:26.470Z,6.90
2018-09-20T03:22:26.464Z,6.90
2018-09-20T03:24:22.437Z,6.60
2018-09-20T03:25:22.422Z,6.30
2018-09-20T03:27:18.871Z,6.50
2018-09-20T03:28:18.918Z,6.10
2018-09-20T03:30:14.303Z,6.40
2018-09-20T03:31:14.293Z,6.30
2018-09-20T03:33:12.419Z,7.50
2018-09-20T03:34:12.434Z,6.90
2018-09-20T03:36:08.379Z,7.50
2018-09-20T03:37:08.901Z,7.00
2018-09-20T03:39:04.866Z,7.00
2018-09-20T03:40:04.325Z,6.60
2018-09-20T03:42:00.777Z,6.90
2018-09-20T03:43:00.264Z,7.10
2018-09-20T03:44:56.704Z,7.20
2018-09-20T03:45:56.708Z,7.20
2018-09-20T03:47:52.144Z,6.50
2018-09-20T03:48:52.156Z,6.80
2018-09-20T03:50:48.113Z,6.30
2018-09-20T03:51:48.111Z,6.30
2018-09-20T03:53:44.067Z,7.40
2018-09-20T03:54:44.556Z,8.00
2018-09-20T03:56:41.997Z,7.40
2018-09-20T03:57:41.967Z,7.20
2018-09-20T03:59:40.072Z,6.70
2018-09-20T04:00:41.930Z,7.10
2018-09-20T04:02:39.041Z,7.70
2018-09-20T04:03:38.202Z,10.10
2018-09-20T04:05:34.671Z,7.40
2018-09-20T04:06:34.152Z,7.10
2018-09-20T04:08:31.125Z,6.30
2018-09-20T04:09:30.663Z,7.30
2018-09-20T04:11:26.557Z,6.80
2018-09-20T04:12:26.565Z,6.10
2018-09-20T04:14:22.492Z,6.70
2018-09-20T04:15:21.988Z,6.80
2018-09-20T04:17:18.964Z,7.20
2018-09-20T04:18:17.946Z,7.80
2018-09-20T04:20:14.428Z,7.80
2018-09-20T04:21:13.877Z,7.10
2018-09-20T04:23:09.854Z,7.20
2018-09-20T04:24:09.822Z,6.60
2018-09-20T04:26:06.276Z,7.40
2018-09-20T04:27:05.781Z,7.40
2018-09-20T04:29:01.724Z,7.30
2018-09-20T04:30:02.221Z,7.50
2018-09-20T04:31:57.745Z,7.00
2018-09-20T04:32:57.653Z,6.70
2018-09-20T04:34:53.721Z,7.10
2018-09-20T04:35:53.611Z,6.80
2018-09-20T04:37:50.560Z,7.70
2018-09-20T04:38:49.546Z,7.20
2018-09-20T04:40:45.526Z,6.90
2018-09-20T04:41:46.010Z,7.10
2018-09-20T04:43:41.439Z,7.80
2018-09-20T04:44:41.445Z,7.40
2018-09-20T04:46:37.426Z,7.40
2018-09-20T04:47:37.439Z,6.60
2018-09-20T04:49:33.856Z,7.10
2018-09-20T04:50:33.288Z,7.70
2018-09-20T04:52:29.244Z,7.10
2018-09-20T04:53:29.313Z,7.10
2018-09-20T04:55:26.161Z,7.80
2018-09-20T04:56:26.184Z,7.50
2018-09-20T04:58:23.135Z,8.10
2018-09-20T04:59:22.637Z,8.10
2018-09-20T05:01:18.558Z,7.20
2018-09-20T05:02:18.056Z,8.70
2018-09-20T05:04:15.940Z,8.60
2018-09-20T05:05:15.539Z,8.70
2018-09-20T05:07:09.493Z,7.40
2018-09-20T05:08:09.502Z,7.40
2018-09-20T05:10:05.400Z,7.50
2018-09-20T05:11:05.423Z,7.80
2018-09-20T05:13:02.403Z,8.10
2018-09-20T05:14:01.368Z,8.70
2018-09-20T05:15:57.809Z,8.40
2018-09-20T05:16:57.301Z,8.30
2018-09-20T05:18:54.259Z,7.90
2018-09-20T05:19:53.259Z,6.90
2018-09-20T05:21:49.170Z,7.10
2018-09-20T05:22:49.199Z,7.80
2018-09-20T05:24:45.238Z,7.60
2018-09-20T05:25:46.621Z,8.40
2018-09-20T05:27:41.177Z,9.30
2018-09-20T05:29:57.188Z,9.10
2018-09-20T05:30:57.145Z,8.60
2018-09-20T05:32:53.104Z,9.30
2018-09-20T05:33:53.083Z,9.30
2018-09-20T05:35:49.549Z,8.20
2018-09-20T05:36:49.242Z,8.00
2018-09-20T05:38:45.976Z,9.10
2018-09-20T05:39:44.961Z,8.30
2018-09-20T05:41:40.948Z,8.30
2018-09-20T05:42:40.905Z,7.30
2018-09-20T05:44:39.041Z,9.10
2018-09-20T05:45:39.019Z,8.50
2018-09-20T05:47:35.494Z,8.60
2018-09-20T05:48:34.964Z,8.30
2018-09-20T05:50:31.908Z,8.60
2018-09-20T05:51:30.943Z,9.30
2018-09-20T05:53:26.861Z,10.40
2018-09-20T05:54:26.899Z,9.50
2018-09-20T05:56:24.356Z,9.60
2018-09-20T05:57:23.866Z,9.30
2018-09-20T05:59:20.394Z,9.10
2018-09-20T06:00:19.813Z,8.90
2018-09-20T06:02:16.758Z,8.70
2018-09-20T06:03:15.740Z,8.40
2018-09-20T06:05:11.724Z,7.70
2018-09-20T06:06:11.685Z,7.80
2018-09-20T06:08:07.652Z,8.50
2018-09-20T06:09:07.650Z,8.30
2018-09-20T06:11:05.596Z,8.20
2018-09-20T06:12:05.605Z,9.00
2018-09-20T06:14:01.575Z,9.40
2018-09-20T06:15:02.090Z,9.80
2018-09-20T06:17:00.029Z,9.10
2018-09-20T06:17:59.512Z,8.40
2018-09-20T06:19:55.494Z,8.70
2018-09-20T06:20:55.979Z,8.70
2018-09-20T06:22:52.887Z,8.50
2018-09-20T06:23:51.395Z,8.50
2018-09-20T06:25:47.827Z,8.40
2018-09-20T06:26:47.320Z,8.90
2018-09-20T06:28:41.800Z,10.40
2018-09-20T06:29:42.786Z,8.90
2018-09-20T06:31:38.481Z,8.40
2018-09-20T06:32:39.194Z,8.70
2018-09-20T06:34:34.244Z,7.80
2018-09-20T06:35:33.684Z,7.70
2018-09-20T06:37:28.147Z,8.30
2018-09-20T06:38:28.136Z,9.90
2018-09-20T06:40:24.103Z,8.60
2018-09-20T06:41:25.108Z,8.50
2018-09-20T06:43:21.066Z,8.20
2018-09-20T06:44:20.116Z,8.50
2018-09-20T06:46:15.576Z,8.80
2018-09-20T06:47:14.537Z,8.90
2018-09-20T06:49:10.506Z,9.10
2018-09-20T06:50:11.523Z,9.30
2018-09-20T06:52:07.477Z,9.20
2018-09-20T06:53:07.483Z,8.80
2018-09-20T06:55:02.454Z,9.30
2018-09-20T06:56:02.490Z,9.40
2018-09-20T06:57:58.921Z,9.10
2018-09-20T06:58:58.411Z,9.80
2018-09-20T07:00:52.866Z,9.90
2018-09-20T07:01:52.894Z,10.50
2018-09-20T07:03:49.327Z,8.40
2018-09-20T07:04:48.815Z,9.10
2018-09-20T07:06:44.818Z,8.60
2018-09-20T07:07:44.774Z,8.70
2018-09-20T07:09:40.675Z,10.30
2018-09-20T07:10:40.697Z,10.50
2018-09-20T07:12:36.641Z,11.00
2018-09-20T07:13:36.637Z,10.60
2018-09-20T07:15:33.110Z,9.20
2018-09-20T07:16:32.587Z,8.90
2018-09-20T07:18:29.545Z,9.90
2018-09-20T07:19:28.568Z,10.10
2018-09-20T07:21:25.008Z,9.10
2018-09-20T07:22:24.503Z,8.80
2018-09-20T07:24:20.181Z,7.70
2018-09-20T07:25:21.049Z,8.10
2018-09-20T07:27:17.126Z,8.30
2018-09-20T07:28:17.133Z,8.90
2018-09-20T07:30:12.100Z,7.50
2018-09-20T07:31:12.091Z,7.10
2018-09-20T07:33:08.055Z,8.00
2018-09-20T07:34:08.072Z,7.70
2018-09-20T07:36:04.036Z,7.10
2018-09-20T07:37:04.057Z,7.30
2018-09-20T07:38:59.999Z,6.80
2018-09-20T07:40:00.064Z,7.20
2018-09-20T07:41:55.991Z,7.40
2018-09-20T07:42:55.979Z,7.60
2018-09-20T07:44:52.441Z,7.20
2018-09-20T07:45:51.927Z,6.50
2018-09-20T07:47:48.874Z,6.90
2018-09-20T07:48:49.441Z,6.10
2018-09-20T07:50:45.853Z,6.90
2018-09-20T07:51:45.351Z,6.60
2018-09-20T07:53:40.842Z,8.10
2018-09-20T07:54:41.285Z,6.70
2018-09-20T07:56:38.825Z,7.40
2018-09-20T07:57:39.742Z,7.80
2018-09-20T07:59:34.711Z,6.70
2018-09-20T08:00:34.686Z,6.50
2018-09-20T08:02:33.148Z,7.70
2018-09-20T08:03:33.685Z,9.10
2018-09-20T08:05:30.738Z,7.20
2018-09-20T08:06:30.825Z,6.40
2018-09-20T08:08:26.692Z,6.60
2018-09-20T08:09:26.693Z,5.90
2018-09-20T08:11:22.695Z,6.60
2018-09-20T08:12:22.650Z,6.20
2018-09-20T08:14:19.118Z,6.60
2018-09-20T08:15:18.594Z,7.20
2018-09-20T08:17:14.561Z,6.70
2018-09-20T08:18:14.561Z,5.70
2018-09-20T08:20:11.011Z,6.10
2018-09-20T08:21:10.506Z,5.90
2018-09-20T08:23:06.973Z,5.40
2018-09-20T08:24:07.454Z,6.30
2018-09-20T08:26:02.426Z,5.50
2018-09-20T08:27:02.434Z,7.10
2018-09-20T08:28:59.324Z,6.10
2018-09-20T08:29:58.411Z,6.50
2018-09-20T08:31:55.336Z,7.00
2018-09-20T08:32:54.335Z,6.20
2018-09-20T08:34:51.300Z,5.60
2018-09-20T08:35:51.303Z,6.40
2018-09-20T08:37:46.938Z,6.00
2018-09-20T08:38:46.279Z,6.10
2018-09-20T08:40:42.305Z,5.50
2018-09-20T08:41:42.263Z,5.70
2018-09-20T08:43:39.217Z,6.00
2018-09-20T08:44:38.723Z,5.60
2018-09-20T08:46:35.593Z,5.20
2018-09-20T08:47:34.657Z,4.80
2018-09-20T08:49:30.065Z,5.00
2018-09-20T08:50:30.088Z,5.40
2018-09-20T08:52:26.570Z,5.70
2018-09-20T08:53:26.025Z,4.80
2018-09-20T08:55:22.016Z,4.60
2018-09-20T08:56:21.977Z,5.10
2018-09-20T08:58:17.952Z,7.80
2018-09-20T08:59:17.927Z,8.10
2018-09-20T09:01:13.876Z,5.30
2018-09-20T09:02:13.884Z,4.70
2018-09-20T09:04:09.860Z,4.70
2018-09-20T09:05:09.854Z,5.10
2018-09-20T09:07:06.311Z,4.70
2018-09-20T09:08:05.815Z,5.00
2018-09-20T09:10:02.775Z,5.20
2018-09-20T09:11:01.893Z,5.40
2018-09-20T09:12:57.834Z,4.90
2018-09-20T09:13:57.846Z,4.60
2018-09-20T09:15:53.873Z,5.40
2018-09-20T09:16:53.847Z,4.40
2018-09-20T09:18:49.763Z,4.30
2018-09-20T09:19:49.756Z,4.90
2018-09-20T09:21:45.726Z,5.10
2018-09-20T09:22:45.720Z,4.90
2018-09-20T09:24:41.693Z,5.00
2018-09-20T09:25:41.682Z,4.90
2018-09-20T09:27:39.567Z,4.80
2018-09-20T09:28:37.788Z,5.10
2018-09-20T09:30:34.631Z,4.80
2018-09-20T09:31:33.610Z,5.30
2018-09-20T09:33:29.596Z,4.90
2018-09-20T09:34:30.563Z,5.70
2018-09-20T09:36:25.539Z,7.00
2018-09-20T09:37:26.063Z,5.30
2018-09-20T09:39:21.984Z,5.60
2018-09-20T09:40:21.440Z,6.00
2018-09-20T09:42:17.449Z,4.80
2018-09-20T09:43:17.388Z,4.60
2018-09-20T09:45:13.368Z,5.10
2018-09-20T09:46:13.875Z,5.10
2018-09-20T09:48:09.354Z,5.30
2018-09-20T09:49:09.306Z,4.70
2018-09-20T09:51:06.271Z,4.20
2018-09-20T09:52:06.266Z,5.40
2018-09-20T09:54:01.263Z,5.20
2018-09-20T09:55:01.258Z,4.80
2018-09-20T09:56:57.220Z,5.60
2018-09-20T09:57:57.704Z,4.80
2018-09-20T09:59:53.681Z,4.90
2018-09-20T10:00:53.128Z,5.70
2018-09-20T10:02:49.128Z,4.50
2018-09-20T10:03:49.113Z,5.10
2018-09-20T10:05:46.075Z,5.00
2018-09-20T10:06:45.600Z,4.80
2018-09-20T10:08:42.021Z,4.60
2018-09-20T10:09:42.038Z,5.50
2018-09-20T10:11:37.967Z,5.30
2018-09-20T10:12:37.974Z,4.40
2018-09-20T10:14:34.935Z,4.90
2018-09-20T10:15:33.947Z,4.80
2018-09-20T10:17:31.951Z,4.60
2018-09-20T10:18:31.892Z,4.90
2018-09-20T10:20:29.884Z,8.70
2018-09-20T10:21:29.873Z,6.60
2018-09-20T10:23:25.842Z,4.40
2018-09-20T10:24:25.831Z,5.10
2018-09-20T10:26:21.819Z,4.70
2018-09-20T10:27:21.814Z,4.30
2018-09-20T10:29:17.788Z,4.30
2018-09-20T10:30:17.741Z,4.50
2018-09-20T10:32:14.204Z,4.00
2018-09-20T10:33:13.693Z,4.60
2018-09-20T10:35:09.667Z,4.40
2018-09-20T10:36:09.659Z,4.00
2018-09-20T10:38:07.646Z,4.10
2018-09-20T10:39:07.612Z,4.00
2018-09-20T10:41:03.597Z,4.20
2018-09-20T10:42:03.585Z,4.10
2018-09-20T10:43:59.542Z,4.30
2018-09-20T10:45:00.465Z,3.60
2018-09-20T10:46:56.023Z,3.60
2018-09-20T10:47:55.499Z,4.20
2018-09-20T10:49:51.433Z,4.70
2018-09-20T10:50:51.423Z,4.90
2018-09-20T10:52:47.897Z,4.50
2018-09-20T10:53:47.384Z,4.00
2018-09-20T10:55:43.323Z,3.80
2018-09-20T10:56:43.333Z,4.30
2018-09-20T10:58:39.309Z,6.00
2018-09-20T10:59:39.295Z,7.30
2018-09-20T11:01:35.276Z,5.70
2018-09-20T11:02:35.292Z,4.60
2018-09-20T11:04:31.737Z,4.50
2018-09-20T11:05:31.236Z,5.40
2018-09-20T11:07:27.699Z,3.60
2018-09-20T11:08:27.176Z,3.90
2018-09-20T11:10:23.188Z,4.30
2018-09-20T11:11:23.176Z,3.90
2018-09-20T11:13:20.118Z,3.80
2018-09-20T11:14:19.114Z,4.30
2018-09-20T11:16:16.090Z,4.30
2018-09-20T11:17:15.065Z,4.50
2018-09-20T11:19:11.060Z,3.80
2018-09-20T11:21:28.007Z,3.80
2018-09-20T11:22:28.012Z,4.50
2018-09-20T11:24:23.057Z,4.20
2018-09-20T11:25:22.987Z,5.20
2018-09-20T11:27:19.457Z,3.80
2018-09-20T11:28:18.994Z,4.00
2018-09-20T11:30:14.862Z,4.40
2018-09-20T11:31:14.845Z,4.50
2018-09-20T11:33:10.847Z,3.90
2018-09-20T11:34:11.823Z,4.40
2018-09-20T11:36:05.353Z,4.70
2018-09-20T11:37:05.398Z,4.70
2018-09-20T11:38:58.798Z,4.70
2018-09-20T11:39:58.834Z,4.00
2018-09-20T11:41:53.293Z,4.00
2018-09-20T11:42:53.289Z,3.70
2018-09-20T11:44:50.241Z,5.40
2018-09-20T11:45:49.256Z,4.00
2018-09-20T11:47:44.725Z,4.80
2018-09-20T11:48:43.718Z,4.20
2018-09-20T11:50:37.697Z,4.10
2018-09-20T11:51:37.709Z,4.20
2018-09-20T11:53:33.655Z,4.10
2018-09-20T11:54:33.173Z,4.00
2018-09-20T11:56:30.129Z,4.10
2018-09-20T11:57:29.133Z,4.50
2018-09-20T11:59:25.578Z,3.70
2018-09-20T12:00:25.056Z,3.80
2018-09-20T12:02:21.014Z,3.80
2018-09-20T12:03:20.999Z,4.60
2018-09-20T12:05:16.966Z,4.40
2018-09-20T12:06:16.968Z,4.30
2018-09-20T12:08:12.983Z,4.80
2018-09-20T12:09:12.964Z,3.90
2018-09-20T12:11:09.416Z,3.70
2018-09-20T12:12:08.907Z,4.20
2018-09-20T12:14:05.875Z,4.30
2018-09-20T12:15:04.876Z,3.60
2018-09-20T12:17:00.905Z,3.80
2018-09-20T12:18:00.869Z,3.40
2018-09-20T12:19:56.818Z,4.90
2018-09-20T12:20:57.336Z,3.80
2018-09-20T12:22:53.776Z,3.00
2018-09-20T12:23:54.181Z,3.00
2018-09-20T12:25:48.767Z,2.90
2018-09-20T12:26:48.745Z,3.60
2018-09-20T12:28:44.692Z,3.50
2018-09-20T12:29:45.212Z,3.40
2018-09-20T12:31:41.146Z,3.60
2018-09-20T12:32:40.657Z,3.40
2018-09-20T12:34:39.101Z,4.20
2018-09-20T12:35:37.734Z,3.40
2018-09-20T12:37:32.647Z,3.20
2018-09-20T12:38:33.644Z,3.20
2018-09-20T12:40:28.628Z,3.00
2018-09-20T12:41:28.632Z,3.80
2018-09-20T12:43:25.152Z,3.10
2018-09-20T12:44:24.576Z,3.20
2018-09-20T12:46:20.562Z,3.10
2018-09-20T12:47:20.540Z,3.40
2018-09-20T12:49:17.010Z,3.20
2018-09-20T12:50:16.480Z,3.30
2018-09-20T12:52:13.426Z,3.60
2018-09-20T12:53:12.435Z,3.80
2018-09-20T12:55:08.436Z,4.20
2018-09-20T12:56:08.411Z,3.50
2018-09-20T12:58:04.376Z,4.20
2018-09-20T12:59:04.422Z,3.40
2018-09-20T13:01:00.392Z,3.30
2018-09-20T13:02:00.382Z,3.10
2018-09-20T13:03:56.362Z,3.60
2018-09-20T13:04:57.320Z,3.70
2018-09-20T13:06:52.321Z,3.70
2018-09-20T13:07:52.315Z,3.60
2018-09-20T13:09:49.303Z,3.60
2018-09-20T13:10:48.236Z,3.10
2018-09-20T13:12:44.196Z,3.40
2018-09-20T13:13:44.206Z,3.70
2018-09-20T13:15:40.228Z,3.40
2018-09-20T13:16:40.143Z,3.20
2018-09-20T13:18:38.089Z,3.20
2018-09-20T13:19:38.105Z,3.00
2018-09-20T13:21:36.076Z,3.60
2018-09-20T13:22:36.576Z,4.10
2018-09-20T13:24:32.067Z,3.40
2018-09-20T13:25:32.079Z,3.20
2018-09-20T13:27:28.033Z,3.40
2018-09-20T13:28:28.018Z,3.10
2018-09-20T13:30:24.039Z,2.90
2018-09-20T13:31:25.019Z,3.10
2018-09-20T13:33:20.524Z,3.00
2018-09-20T13:34:20.015Z,2.90
2018-09-20T13:36:16.114Z,3.20
2018-09-20T13:37:16.046Z,3.10
2018-09-20T13:39:12.039Z,4.30
2018-09-20T13:40:11.985Z,4.00
2018-09-20T13:42:08.954Z,3.50
2018-09-20T13:43:07.990Z,3.90
2018-09-20T13:45:04.025Z,4.00
2018-09-20T13:46:03.948Z,3.60
2018-09-20T13:48:00.254Z,3.00
2018-09-20T13:48:59.909Z,3.00
2018-09-20T13:50:58.435Z,3.30
2018-09-20T13:51:57.883Z,3.50
2018-09-20T13:53:55.363Z,4.00
2018-09-20T13:54:53.852Z,3.90
2018-09-20T13:56:49.864Z,3.10
2018-09-20T13:57:49.822Z,2.80
2018-09-20T13:59:45.792Z,4.00
2018-09-20T14:00:45.764Z,3.20
2018-09-20T14:02:41.776Z,2.80
2018-09-20T14:03:41.800Z,3.60
2018-09-20T14:05:40.690Z,5.70
2018-09-20T14:06:40.185Z,3.40
2018-09-20T14:08:36.652Z,3.20
2018-09-20T14:09:35.637Z,3.20
2018-09-20T14:11:37.062Z,3.00
2018-09-20T14:12:35.886Z,2.90
2018-09-20T14:14:37.425Z,2.80
2018-09-20T14:15:31.953Z,2.70
2018-09-20T14:17:40.871Z,2.60
2018-09-20T14:18:39.855Z,2.80
2018-09-20T14:20:37.336Z,3.20
2018-09-20T14:21:36.832Z,3.00
2018-09-20T14:23:31.899Z,3.00
2018-09-20T14:24:31.808Z,2.90
2018-09-20T14:26:39.964Z,2.70
2018-09-20T14:27:40.934Z,3.00
2018-09-20T14:29:35.961Z,2.70
2018-09-20T14:30:35.863Z,2.70
2018-09-20T14:32:31.992Z,3.30
2018-09-20T14:33:31.987Z,2.70
2018-09-20T14:35:32.585Z,2.80
2018-09-20T14:36:31.173Z,2.90
2018-09-20T14:38:27.149Z,3.00
2018-09-20T14:39:27.211Z,3.00
2018-09-20T14:41:23.613Z,3.00
